New Castle, Pennsylvania
Current Conditions -  °F | °C
As of 3:41 AM on Monday 26 Jan 2015 (Local Time) from KUCP Reporting Station
Light Snow Light Snow  
Wind Chill: 12°   Ceiling: 200
Heat Index: 21°   Visibility: 1.5mi
Dew Point: 19°   Wind: 8mph
Humidity: 93%   Direction: 20°NNE
Pressure: 29.76"   Gusts: NA
Location:  41°N, 80.35°W
Report Text: KUCP 260841Z AUTO 02007KT 1 1/2SM -SN BR OVC002 M06/M07 A2976 RMK AO2 TSNO P0000 $
Loading
Personal Weather Stations






























Interactive Weather Map New forecast layout! Learn more

10-Day Weather Forecast

Advertisements
Track Severe Weather on mobile